Time;durP1;ratioP1;P1;durP2;ratioP2;P2;SDS_P1;SDS_P2;PMS_P1;PMS_P2;Temp;Humidity;BMP_temperature;BMP_pressure;BME280_temperature;BME280_humidity;BME280_pressure;Samples;Min_cycle;Max_cycle;Signal;HPM_P1;HPM_P2
2022/03/21 00:00:45;;;;;;;14.20;8.87;;;3.80;1.00;;;;;;5092676;28;20546;-70
2022/03/21 00:03:13;;;;;;;17.77;8.83;;;3.80;1.00;;;;;;5092343;28;20197;-70
2022/03/21 00:05:42;;;;;;;17.47;9.03;;;3.60;1.00;;;;;;5092873;28;20206;-70
2022/03/21 00:08:11;;;;;;;15.57;8.87;;;3.50;1.00;;;;;;5091014;28;20202;-70
2022/03/21 00:10:38;;;;;;;19.30;9.40;;;3.20;99.90;;;;;;5091672;28;20208;-70
2022/03/21 00:13:06;;;;;;;16.47;8.53;;;3.00;1.00;;;;;;5092058;28;20197;-70
2022/03/21 00:15:34;;;;;;;20.73;9.87;;;3.10;99.90;;;;;;5091168;28;20202;-70
2022/03/21 00:18:02;;;;;;;17.97;9.50;;;3.20;1.00;;;;;;5089570;28;20218;-70
2022/03/21 00:20:29;;;;;;;17.77;9.47;;;3.30;1.00;;;;;;5089715;28;20209;-70
2022/03/21 00:22:57;;;;;;;15.83;8.70;;;3.00;99.90;;;;;;5092556;28;20644;-70
2022/03/21 00:25:25;;;;;;;18.83;8.97;;;2.60;1.00;;;;;;5091605;28;20571;-70
2022/03/21 00:27:52;;;;;;;14.97;9.30;;;2.30;1.00;;;;;;5090485;28;20200;-70
2022/03/21 00:30:19;;;;;;;16.87;9.20;;;2.20;1.00;;;;;;5090079;28;20201;-70
2022/03/21 00:32:46;;;;;;;16.73;8.43;;;2.20;1.00;;;;;;5091138;28;20198;-70
2022/03/21 00:35:15;;;;;;;16.93;8.93;;;2.50;1.00;;;;;;5092399;28;20194;-70
2022/03/21 00:37:42;;;;;;;17.40;8.93;;;2.40;1.00;;;;;;5091911;28;20218;-69
2022/03/21 00:40:11;;;;;;;16.27;8.53;;;2.40;1.00;;;;;;5092256;28;20580;-70
2022/03/21 00:42:40;;;;;;;20.80;9.10;;;2.50;1.00;;;;;;5092229;28;20197;-70
2022/03/21 00:45:09;;;;;;;17.37;9.53;;;2.70;1.00;;;;;;5091639;28;20250;-70
2022/03/21 00:47:36;;;;;;;17.47;8.47;;;2.80;99.90;;;;;;5092059;28;20193;-70
2022/03/21 00:50:04;;;;;;;17.60;8.67;;;2.90;99.90;;;;;;5092376;28;20193;-70
2022/03/21 00:52:32;;;;;;;16.43;9.00;;;3.00;99.90;;;;;;5092215;28;20720;-70
2022/03/21 00:54:59;;;;;;;19.13;9.37;;;2.90;99.90;;;;;;5092360;28;20288;-70
2022/03/21 00:57:26;;;;;;;20.63;9.17;;;2.90;99.90;;;;;;5091973;28;20610;-70
2022/03/21 00:59:54;;;;;;;19.83;9.73;;;2.80;99.90;;;;;;5091880;28;20198;-70
2022/03/21 01:02:21;;;;;;;16.73;9.60;;;2.80;99.90;;;;;;5092122;28;20219;-70
2022/03/21 01:04:48;;;;;;;16.20;8.70;;;2.60;1.00;;;;;;5092081;28;20662;-70
2022/03/21 01:07:15;;;;;;;17.97;9.00;;;2.80;99.90;;;;;;5092294;28;20201;-70
2022/03/21 01:09:42;;;;;;;19.90;9.00;;;2.90;99.90;;;;;;5092053;28;20566;-70
2022/03/21 01:12:10;;;;;;;15.67;9.03;;;3.10;95.00;;;;;;5091907;28;20209;-70
2022/03/21 01:14:36;;;;;;;17.60;9.17;;;2.90;99.90;;;;;;5092673;28;20205;-70
2022/03/21 01:17:05;;;;;;;17.20;8.73;;;2.80;1.00;;;;;;5091638;28;20214;-70
2022/03/21 01:19:32;;;;;;;17.37;8.83;;;2.50;1.00;;;;;;5092056;28;20205;-70
2022/03/21 01:21:59;;;;;;;17.47;9.17;;;2.50;1.00;;;;;;5091535;28;20205;-69
2022/03/21 01:24:26;;;;;;;17.60;9.23;;;2.50;1.00;;;;;;5092070;28;20293;-70
2022/03/21 01:26:53;;;;;;;18.23;10.00;;;2.60;1.00;;;;;;5091675;28;20189;-70
2022/03/21 01:29:20;;;;;;;18.13;9.17;;;2.40;1.00;;;;;;5091818;28;20193;-70
2022/03/21 01:31:46;;;;;;;21.13;9.83;;;2.30;1.00;;;;;;5091970;28;20221;-70
2022/03/21 01:34:15;;;;;;;17.60;9.73;;;2.20;99.90;;;;;;5091719;28;20208;-70
2022/03/21 01:36:42;;;;;;;17.90;9.33;;;2.20;99.90;;;;;;5091755;28;20225;-70
2022/03/21 01:39:09;;;;;;;18.40;10.10;;;2.40;1.00;;;;;;5091172;28;20295;-70
2022/03/21 01:41:36;;;;;;;20.27;9.47;;;2.50;1.00;;;;;;5091657;28;20198;-70
2022/03/21 01:44:06;;;;;;;18.90;9.80;;;2.70;1.00;;;;;;5091733;28;20287;-70
2022/03/21 01:46:34;;;;;;;18.30;9.30;;;2.70;1.00;;;;;;5091852;28;20197;-69
2022/03/21 01:49:01;;;;;;;16.50;8.70;;;2.60;1.00;;;;;;5091067;28;20229;-70
2022/03/21 01:51:30;;;;;;;17.87;8.80;;;2.70;1.00;;;;;;5091543;28;20194;-69
2022/03/21 01:56:44;;;;;;;17.90;9.13;;;2.80;99.90;;;;;;5093025;28;20632;-70
2022/03/21 01:59:12;;;;;;;17.60;9.10;;;2.90;99.90;;;;;;5092712;28;20266;-70
2022/03/21 02:01:40;;;;;;;17.57;9.53;;;2.80;99.90;;;;;;5093532;28;20209;-70
2022/03/21 02:04:07;;;;;;;18.73;9.33;;;2.60;99.90;;;;;;5094716;28;20201;-70
2022/03/21 02:06:36;;;;;;;19.20;9.53;;;2.60;1.00;;;;;;5094013;28;20202;-70
2022/03/21 02:09:06;;;;;;;17.80;9.77;;;2.60;99.90;;;;;;5094149;28;20201;-73
2022/03/21 02:11:34;;;;;;;16.13;8.83;;;2.60;1.00;;;;;;5093758;28;20213;-73
2022/03/21 02:14:05;;;;;;;19.97;10.80;;;2.50;1.00;;;;;;5094183;28;20202;-73
2022/03/21 02:16:33;;;;;;;17.00;9.20;;;2.70;99.90;;;;;;5093557;28;20560;-74
2022/03/21 02:19:03;;;;;;;18.60;9.70;;;2.70;99.90;;;;;;5093674;28;20570;-73
2022/03/21 02:21:42;;;;;;;17.60;9.07;;;2.90;44.50;;;;;;5094815;28;20648;-74
2022/03/21 02:24:12;;;;;;;18.43;9.80;;;2.90;1.00;;;;;;5094731;28;20202;-73
2022/03/21 02:26:40;;;;;;;18.27;9.33;;;3.00;1.00;;;;;;5094453;28;20217;-73
2022/03/21 02:29:09;;;;;;;18.33;9.83;;;3.00;1.00;;;;;;5093412;28;20206;-73
2022/03/21 02:31:36;;;;;;;19.97;10.37;;;3.00;1.00;;;;;;5094729;28;20206;-73
2022/03/21 02:34:03;;;;;;;17.13;9.57;;;3.10;1.00;;;;;;5094296;28;20197;-74
2022/03/21 02:36:32;;;;;;;18.40;10.00;;;3.20;1.00;;;;;;5093130;28;20193;-73
2022/03/21 02:39:00;;;;;;;18.73;9.90;;;3.30;1.00;;;;;;5092870;28;20221;-73
2022/03/21 02:41:27;;;;;;;16.93;8.70;;;3.10;1.00;;;;;;5094737;28;20654;-73
2022/03/21 02:43:57;;;;;;;17.47;9.40;;;3.10;1.00;;;;;;5093618;28;20198;-73
2022/03/21 02:46:24;;;;;;;19.07;9.53;;;3.00;1.00;;;;;;5094573;28;20201;-73
2022/03/21 02:48:53;;;;;;;17.27;8.60;;;3.00;1.00;;;;;;5093735;28;20556;-73
2022/03/21 02:51:21;;;;;;;18.97;9.03;;;3.00;47.40;;;;;;5093028;28;20201;-73
2022/03/21 02:53:50;;;;;;;16.83;10.10;;;2.80;99.90;;;;;;5093674;28;20543;-73
2022/03/21 02:56:18;;;;;;;16.60;9.20;;;2.80;99.90;;;;;;5094219;28;20201;-73
2022/03/21 02:58:44;;;;;;;17.30;9.13;;;2.30;1.00;;;;;;5093095;28;20217;-73
2022/03/21 03:01:14;;;;;;;18.23;9.50;;;1.60;99.90;;;;;;5094496;28;20200;-73
2022/03/21 03:03:42;;;;;;;19.33;9.73;;;1.50;1.00;;;;;;5091055;28;20285;-73
2022/03/21 03:06:09;;;;;;;20.00;9.53;;;1.70;99.90;;;;;;5092996;28;20233;-74
2022/03/21 03:08:38;;;;;;;19.87;10.13;;;1.70;99.90;;;;;;5091828;28;20221;-73
2022/03/21 03:11:05;;;;;;;17.83;10.30;;;1.70;1.00;;;;;;5093885;28;20208;-73
2022/03/21 03:13:32;;;;;;;19.47;9.70;;;1.90;1.00;;;;;;5092924;28;20202;-73
2022/03/21 03:16:00;;;;;;;20.00;9.37;;;2.40;99.90;;;;;;5092992;28;20208;-73
2022/03/21 03:18:28;;;;;;;18.83;9.53;;;2.70;1.00;;;;;;5092357;28;20219;-73
2022/03/21 03:20:57;;;;;;;17.73;9.40;;;3.00;82.10;;;;;;5093761;28;20560;-73
2022/03/21 03:23:26;;;;;;;18.30;9.57;;;3.10;1.00;;;;;;5093764;28;20198;-73
2022/03/21 03:25:57;;;;;;;20.87;9.90;;;3.10;1.00;;;;;;5092649;28;20198;-73
2022/03/21 03:28:24;;;;;;;17.23;9.83;;;3.10;1.00;;;;;;5092307;28;20201;-73
2022/03/21 03:30:52;;;;;;;20.43;10.20;;;3.10;1.00;;;;;;5093338;28;20209;-73
2022/03/21 03:33:19;;;;;;;17.83;9.80;;;3.00;1.00;;;;;;5093045;28;20206;-73
2022/03/21 03:35:47;;;;;;;19.37;9.90;;;3.10;1.00;;;;;;5092953;28;20200;-73
2022/03/21 03:38:15;;;;;;;18.17;9.83;;;3.10;1.00;;;;;;5092767;28;20224;-73
2022/03/21 03:40:43;;;;;;;17.80;10.10;;;2.90;1.00;;;;;;5093628;28;20228;-73
2022/03/21 03:43:10;;;;;;;19.40;10.70;;;2.70;49.90;;;;;;5092446;28;20210;-73
2022/03/21 03:45:37;;;;;;;19.87;10.70;;;2.60;99.90;;;;;;5092769;28;20197;-73
2022/03/21 03:48:05;;;;;;;17.70;9.37;;;2.50;99.90;;;;;;5092081;28;20288;-73
2022/03/21 03:50:33;;;;;;;18.03;9.70;;;2.50;99.90;;;;;;5092087;28;20201;-79
2022/03/21 03:53:01;;;;;;;19.07;10.33;;;2.10;1.00;;;;;;5090934;28;20559;-73
2022/03/21 03:55:28;;;;;;;18.83;9.93;;;1.60;20.00;;;;;;5093430;28;20205;-73
2022/03/21 03:57:55;;;;;;;20.77;10.63;;;1.30;1.00;;;;;;5091755;28;20213;-73
2022/03/21 04:00:22;;;;;;;20.80;10.03;;;1.10;1.00;;;;;;5093244;28;20201;-73
2022/03/21 04:05:34;;;;;;;20.23;10.20;;;0.60;1.00;;;;;;5091880;28;20196;-73
2022/03/21 04:08:02;;;;;;;22.90;10.40;;;0.60;1.00;;;;;;5091502;28;20201;-73
2022/03/21 04:10:29;;;;;;;20.43;10.50;;;0.50;1.00;;;;;;5093063;28;20201;-73
2022/03/21 04:12:56;;;;;;;22.47;10.30;;;0.70;1.00;;;;;;5091968;28;20212;-73
2022/03/21 04:15:23;;;;;;;20.67;10.40;;;1.00;99.90;;;;;;5093362;28;20558;-73
2022/03/21 04:17:52;;;;;;;18.63;10.03;;;1.10;99.90;;;;;;5090901;28;20225;-73
2022/03/21 04:20:20;;;;;;;21.37;11.10;;;1.10;99.90;;;;;;5094967;28;20229;-73
2022/03/21 04:22:47;;;;;;;19.90;10.63;;;0.30;1.00;;;;;;5092099;28;20205;-73
2022/03/21 04:25:16;;;;;;;21.23;11.13;;;0.40;99.90;;;;;;5092701;28;20301;-73
2022/03/21 04:27:42;;;;;;;21.33;10.73;;;0.80;1.00;;;;;;5091658;28;20194;-73
2022/03/21 04:30:10;;;;;;;19.27;9.83;;;1.10;99.90;;;;;;5091856;28;20206;-73
2022/03/21 04:32:37;;;;;;;23.90;10.30;;;1.10;1.00;;;;;;5091602;28;20205;-73
2022/03/21 04:35:05;;;;;;;22.07;11.53;;;0.80;1.00;;;;;;5092528;28;20193;-73
2022/03/21 04:37:32;;;;;;;22.63;11.27;;;1.00;1.00;;;;;;5090326;28;20570;-73
2022/03/21 04:39:59;;;;;;;19.83;9.90;;;1.00;99.90;;;;;;5092158;28;20213;-73
2022/03/21 04:42:27;;;;;;;18.60;9.60;;;1.20;36.20;;;;;;5092353;28;20651;-73
2022/03/21 04:44:54;;;;;;;22.87;10.50;;;1.30;1.00;;;;;;5092281;28;20205;-73
2022/03/21 04:47:22;;;;;;;21.63;10.87;;;1.50;1.00;;;;;;5091957;28;20205;-73
2022/03/21 04:49:49;;;;;;;20.43;10.73;;;1.20;17.90;;;;;;5092640;28;20247;-73
2022/03/21 04:52:16;;;;;;;19.70;10.10;;;1.00;99.90;;;;;;5090627;28;20197;-73
2022/03/21 04:54:43;;;;;;;21.10;10.73;;;1.00;99.90;;;;;;5091910;28;20228;-73
2022/03/21 04:57:12;;;;;;;20.77;10.77;;;1.00;31.00;;;;;;5091323;28;20197;-73
2022/03/21 04:59:40;;;;;;;20.83;11.63;;;1.10;1.00;;;;;;5092022;28;20222;-73
2022/03/21 05:02:07;;;;;;;21.23;11.27;;;1.00;99.90;;;;;;5092192;28;20205;-73
2022/03/21 05:04:34;;;;;;;19.07;10.43;;;0.80;1.00;;;;;;5092108;28;20210;-73
2022/03/21 05:07:01;;;;;;;23.20;10.57;;;0.70;1.00;;;;;;5090505;28;20711;-73
2022/03/21 05:09:28;;;;;;;21.43;11.30;;;0.70;1.00;;;;;;5091648;28;20205;-73
2022/03/21 05:11:55;;;;;;;19.77;10.30;;;0.70;1.00;;;;;;5091191;28;20538;-73
2022/03/21 05:14:22;;;;;;;19.30;11.13;;;0.90;99.90;;;;;;5091626;28;20205;-73
2022/03/21 05:16:50;;;;;;;22.60;10.60;;;0.80;1.00;;;;;;5092277;28;20572;-73
2022/03/21 05:19:17;;;;;;;18.90;10.50;;;0.60;1.00;;;;;;5091489;28;20229;-73
2022/03/21 05:21:44;;;;;;;21.73;11.10;;;0.40;99.90;;;;;;5091779;28;20197;-73
2022/03/21 05:32:27;;;;;;;20.87;10.47;;;0.10;1.00;;;;;;5094433;28;20664;-73
2022/03/21 05:37:38;;;;;;;28.83;21.23;;;0.50;1.00;;;;;;5093993;28;20275;-73
2022/03/21 05:42:52;;;;;;;21.03;11.47;;;0.80;1.00;;;;;;5094921;28;20204;-69
2022/03/21 05:45:20;;;;;;;22.50;11.00;;;0.90;1.00;;;;;;5095076;28;20202;-69
2022/03/21 05:50:45;;;;;;;22.97;11.43;;;1.30;1.00;;;;;;5094400;28;20698;-69
2022/03/21 05:53:12;;;;;;;26.30;12.33;;;1.50;1.00;;;;;;5094876;28;20577;-69
2022/03/21 05:55:39;;;;;;;22.47;11.90;;;1.70;1.00;;;;;;5095831;28;20208;-69
2022/03/21 05:58:06;;;;;;;24.03;12.27;;;1.90;1.00;;;;;;5094556;28;20257;-69
2022/03/21 06:00:35;;;;;;;23.37;11.67;;;2.00;99.90;;;;;;5095285;28;20231;-69
2022/03/21 06:03:03;;;;;;;23.40;11.13;;;2.00;1.00;;;;;;5095343;28;20623;-71
2022/03/21 06:05:31;;;;;;;24.83;11.23;;;2.30;1.00;;;;;;5094712;28;20667;-70
2022/03/21 06:07:58;;;;;;;20.20;10.77;;;2.40;99.90;;;;;;5094176;28;20209;-69
2022/03/21 06:10:25;;;;;;;20.70;11.17;;;2.60;99.90;;;;;;5095473;28;20205;-69
2022/03/21 06:12:55;;;;;;;19.20;10.30;;;2.70;95.50;;;;;;5094826;28;20221;-69
2022/03/21 06:15:22;;;;;;;20.57;10.73;;;2.80;1.00;;;;;;5094295;28;20254;-69
2022/03/21 06:17:49;;;;;;;21.83;11.53;;;2.70;99.90;;;;;;5094587;28;20225;-69
2022/03/21 06:20:18;;;;;;;19.57;10.50;;;2.90;1.00;;;;;;5095454;28;20659;-69
2022/03/21 06:22:45;;;;;;;20.73;11.43;;;2.90;1.00;;;;;;5094668;28;20682;-69
2022/03/21 06:25:12;;;;;;;23.30;11.50;;;3.10;1.00;;;;;;5094432;28;20221;-69
2022/03/21 06:27:40;;;;;;;22.30;11.23;;;3.10;99.90;;;;;;5094554;28;20198;-70
2022/03/21 06:30:10;;;;;;;24.10;11.67;;;3.20;1.00;;;;;;5094372;28;20294;-69
2022/03/21 06:32:37;;;;;;;20.43;11.30;;;3.30;1.00;;;;;;5094026;28;20652;-69
2022/03/21 06:35:09;;;;;;;20.17;11.53;;;3.40;1.00;;;;;;5094112;28;20683;-69
2022/03/21 06:37:38;;;;;;;19.97;11.43;;;3.60;99.90;;;;;;5093311;28;20201;-69
2022/03/21 06:40:06;;;;;;;21.47;11.73;;;3.70;99.90;;;;;;5074597;28;20291;-70
2022/03/21 06:42:33;;;;;;;23.60;13.13;;;3.80;99.90;;;;;;5072946;28;20569;-69
2022/03/21 06:45:02;;;;;;;19.67;10.90;;;4.00;89.20;;;;;;5074244;28;20536;-69
2022/03/21 06:47:29;;;;;;;20.93;12.27;;;4.10;12.00;;;;;;5077495;28;20208;-70
2022/03/21 06:49:56;;;;;;;20.57;12.17;;;4.00;1.00;;;;;;5094679;28;20206;-69
2022/03/21 06:52:23;;;;;;;21.17;11.27;;;4.00;1.00;;;;;;5092856;28;20208;-69
2022/03/21 06:54:52;;;;;;;19.10;11.03;;;4.10;1.00;;;;;;5094484;28;20213;-69
2022/03/21 06:57:19;;;;;;;21.63;12.37;;;4.10;1.00;;;;;;5093536;28;20204;-69
2022/03/21 06:59:47;;;;;;;22.53;12.47;;;4.00;1.00;;;;;;5094546;28;20644;-69
2022/03/21 07:02:14;;;;;;;19.73;12.17;;;4.10;1.00;;;;;;5094384;28;20705;-69
2022/03/21 07:04:41;;;;;;;22.87;12.33;;;4.10;1.00;;;;;;5094543;28;20210;-69
2022/03/21 07:07:08;;;;;;;23.47;12.33;;;4.20;16.40;;;;;;5093756;28;20198;-69
2022/03/21 07:09:35;;;;;;;24.40;13.30;;;4.40;1.00;;;;;;5094125;28;20655;-69
2022/03/21 07:12:03;;;;;;;22.63;12.33;;;4.40;99.90;;;;;;5093922;28;20208;-70
2022/03/21 07:14:30;;;;;;;23.50;12.67;;;4.50;99.90;;;;;;5093853;28;20236;-70
2022/03/21 07:16:57;;;;;;;27.37;14.10;;;4.70;1.00;;;;;;5093948;28;20667;-69
2022/03/21 07:19:24;;;;;;;25.03;13.30;;;4.90;99.90;;;;;;5093144;28;20319;-69
2022/03/21 07:21:51;;;;;;;23.20;13.10;;;5.20;99.90;;;;;;5093741;28;20232;-69
2022/03/21 07:24:18;;;;;;;23.07;13.00;;;5.40;99.90;;;;;;5093526;28;20296;-69
2022/03/21 07:26:45;;;;;;;26.13;13.70;;;5.30;82.50;;;;;;5093958;28;20208;-70
2022/03/21 07:29:13;;;;;;;23.80;13.63;;;5.40;99.90;;;;;;5092300;28;20202;-70
2022/03/21 07:31:40;;;;;;;28.40;14.40;;;5.60;99.90;;;;;;5093796;28;20545;-70
2022/03/21 07:34:08;;;;;;;22.77;13.13;;;5.70;1.00;;;;;;5093289;28;20213;-70
2022/03/21 07:36:35;;;;;;;20.30;12.30;;;5.70;1.00;;;;;;5092354;28;20612;-70
2022/03/21 07:39:04;;;;;;;23.47;13.80;;;5.90;1.00;;;;;;5092843;28;20225;-69
2022/03/21 07:41:31;;;;;;;21.67;12.50;;;6.10;1.00;;;;;;5093563;28;20205;-70
2022/03/21 07:43:58;;;;;;;23.37;12.73;;;6.20;99.90;;;;;;5092856;28;20201;-70
2022/03/21 07:49:12;;;;;;;20.23;13.03;;;7.00;99.90;;;;;;5092347;28;20769;-70
2022/03/21 07:51:39;;;;;;;27.20;13.67;;;7.60;99.90;;;;;;5091757;28;20224;-70
2022/03/21 07:54:06;;;;;;;23.00;13.63;;;8.30;93.40;;;;;;5092678;28;20228;-70
2022/03/21 07:56:33;;;;;;;20.43;13.53;;;8.40;1.00;;;;;;5093360;28;20244;-70
2022/03/21 07:59:01;;;;;;;20.33;13.30;;;7.90;1.00;;;;;;5092378;28;20225;-70
2022/03/21 08:01:30;;;;;;;19.97;11.83;;;7.80;1.00;;;;;;5093264;28;20207;-70
2022/03/21 08:03:59;;;;;;;21.57;13.07;;;7.90;1.00;;;;;;5093055;28;20205;-70
2022/03/21 08:06:26;;;;;;;19.97;12.83;;;7.50;1.00;;;;;;5092544;28;20656;-70
2022/03/21 08:08:55;;;;;;;23.63;13.93;;;7.40;1.00;;;;;;5092538;28;20212;-70
2022/03/21 08:11:22;;;;;;;21.53;13.67;;;7.70;1.00;;;;;;5092467;28;20206;-70
2022/03/21 08:13:50;;;;;;;21.77;13.93;;;8.60;1.00;;;;;;5091807;28;20201;-70
2022/03/21 08:16:22;;;;;;;21.47;13.70;;;8.80;1.00;;;;;;5093052;28;20205;-70
2022/03/21 08:18:52;;;;;;;23.70;14.00;;;9.00;1.00;;;;;;5094695;28;20698;-70
2022/03/21 08:21:19;;;;;;;19.40;12.43;;;10.00;1.00;;;;;;5095505;28;20202;-70
2022/03/21 08:23:47;;;;;;;21.33;13.57;;;10.10;1.00;;;;;;5092536;28;20300;-70
2022/03/21 08:26:14;;;;;;;19.17;12.80;;;9.00;1.00;;;;;;5092864;28;20201;-70
2022/03/21 08:28:41;;;;;;;19.97;12.77;;;9.30;1.00;;;;;;5092292;28;20210;-70
2022/03/21 08:31:08;;;;;;;20.27;12.87;;;8.70;1.00;;;;;;5091701;28;20205;-70
2022/03/21 08:33:34;;;;;;;21.40;13.40;;;8.70;1.00;;;;;;5092144;28;20702;-70
2022/03/21 08:36:03;;;;;;;19.50;12.63;;;8.60;1.00;;;;;;5092817;28;20319;-70
2022/03/21 08:38:30;;;;;;;22.60;13.13;;;8.70;1.00;;;;;;5091481;28;20209;-70
2022/03/21 08:40:58;;;;;;;21.07;12.97;;;9.00;1.00;;;;;;5091317;28;20210;-70
2022/03/21 08:43:25;;;;;;;20.67;13.20;;;9.00;1.00;;;;;;5091760;28;20210;-70
2022/03/21 08:45:52;;;;;;;22.50;12.90;;;9.10;1.00;;;;;;5091658;28;20212;-70
2022/03/21 08:48:19;;;;;;;21.63;13.63;;;9.20;1.00;;;;;;5092048;28;20212;-70
2022/03/21 08:50:46;;;;;;;20.20;12.67;;;9.80;1.00;;;;;;5091999;28;20288;-70
2022/03/21 08:53:14;;;;;;;22.77;12.90;;;9.60;1.00;;;;;;5091237;28;20214;-70
2022/03/21 08:55:41;;;;;;;20.97;13.07;;;9.70;1.00;;;;;;5091416;28;20198;-70
2022/03/21 08:58:08;;;;;;;21.03;13.70;;;9.40;1.00;;;;;;5091112;28;20256;-70
2022/03/21 09:00:35;;;;;;;22.87;13.70;;;9.60;1.00;;;;;;5092507;28;20585;-70
2022/03/21 09:03:02;;;;;;;23.13;14.03;;;9.50;1.00;;;;;;5092249;28;20566;-70
2022/03/21 09:05:28;;;;;;;25.80;14.73;;;9.60;1.00;;;;;;5091753;28;20201;-70
2022/03/21 09:07:55;;;;;;;24.30;14.63;;;10.00;1.00;;;;;;5091615;28;20201;-70
2022/03/21 09:10:23;;;;;;;26.40;13.43;;;9.90;1.00;;;;;;5092146;28;20198;-73
2022/03/21 09:12:51;;;;;;;22.63;13.60;;;10.10;1.00;;;;;;5091157;28;20292;-73
2022/03/21 09:15:18;;;;;;;23.97;14.27;;;10.30;1.00;;;;;;5091474;28;20288;-73
2022/03/21 09:17:45;;;;;;;21.33;13.77;;;10.50;1.00;;;;;;5091193;28;20197;-73
2022/03/21 09:20:14;;;;;;;21.53;14.17;;;10.60;1.00;;;;;;5092345;28;20234;-73
2022/03/21 09:22:41;;;;;;;22.43;13.70;;;10.50;1.00;;;;;;5090957;28;20296;-73
2022/03/21 09:25:09;;;;;;;20.00;12.70;;;10.60;1.00;;;;;;5091284;28;20300;-73
2022/03/21 09:27:41;;;;;;;21.40;13.90;;;10.60;1.00;;;;;;5090544;28;20666;-73
2022/03/21 09:30:09;;;;;;;20.73;12.87;;;10.90;1.00;;;;;;5091581;28;20258;-73
2022/03/21 09:32:36;;;;;;;21.07;13.40;;;11.00;1.00;;;;;;5091191;28;20659;-73
2022/03/21 09:35:03;;;;;;;22.30;13.37;;;11.00;1.00;;;;;;5091952;28;20201;-73
2022/03/21 09:37:30;;;;;;;21.87;15.30;;;11.40;1.00;;;;;;5090481;28;20241;-73
2022/03/21 09:39:57;;;;;;;21.23;14.03;;;11.60;1.00;;;;;;5091622;28;20280;-73
2022/03/21 09:42:24;;;;;;;23.97;14.47;;;12.10;1.00;;;;;;5091551;28;20213;-73
2022/03/21 09:44:54;;;;;;;21.00;13.57;;;12.30;1.00;;;;;;5091292;28;20202;-73
2022/03/21 09:50:10;;;;;;;23.03;14.83;;;12.20;1.00;;;;;;5090676;28;20173;-73
2022/03/21 09:52:38;;;;;;;22.60;14.33;;;12.60;1.00;;;;;;5090271;28;20205;-73
2022/03/21 09:55:05;;;;;;;17.67;12.97;;;12.50;1.00;;;;;;5071794;28;20202;-73
2022/03/21 09:57:32;;;;;;;19.27;13.47;;;12.80;1.00;;;;;;5070207;28;20675;-73
2022/03/21 10:00:01;;;;;;;21.27;13.77;;;12.70;1.00;;;;;;5070694;28;20244;-73
2022/03/21 10:02:27;;;;;;;22.43;14.10;;;12.40;1.00;;;;;;5081393;28;20210;-73
2022/03/21 10:04:54;;;;;;;20.83;13.97;;;12.50;1.00;;;;;;5090584;28;20572;-73
2022/03/21 10:07:24;;;;;;;22.50;14.60;;;12.90;1.00;;;;;;5090174;28;20202;-73
2022/03/21 10:10:07;;;;;;;19.07;13.73;;;12.90;1.00;;;;;;5091748;28;20220;-73
2022/03/21 10:12:35;;;;;;;21.30;13.77;;;12.90;1.00;;;;;;5090854;28;20221;-73
2022/03/21 10:15:05;;;;;;;20.10;13.77;;;12.70;1.00;;;;;;5091693;28;20204;-73
2022/03/21 10:17:32;;;;;;;18.97;13.20;;;12.80;1.00;;;;;;5091536;28;20202;-73
2022/03/21 10:19:59;;;;;;;21.33;14.13;;;13.10;1.00;;;;;;5074839;28;20222;-73
2022/03/21 10:22:37;;;;;;;22.47;14.30;;;13.20;1.00;;;;;;5073499;28;20664;-73
2022/03/21 10:25:06;;;;;;;20.80;14.37;;;13.20;1.00;;;;;;5091466;28;20205;-73
2022/03/21 10:27:34;;;;;;;19.27;13.67;;;13.00;1.00;;;;;;5094384;28;20208;-73
2022/03/21 10:30:03;;;;;;;22.07;15.00;;;13.20;1.00;;;;;;5094136;28;20198;-73
2022/03/21 10:32:40;;;;;;;21.80;14.27;;;12.90;1.00;;;;;;5094265;28;20206;-73
2022/03/21 10:35:12;;;;;;;23.40;14.90;;;13.10;1.00;;;;;;5094796;28;20212;-73
2022/03/21 10:37:48;;;;;;;24.43;15.20;;;12.90;1.00;;;;;;5093429;28;20209;-73
2022/03/21 10:40:21;;;;;;;21.37;13.97;;;13.00;1.00;;;;;;5094411;28;20228;-73
2022/03/21 10:42:55;;;;;;;21.77;15.00;;;13.00;1.00;;;;;;5094318;28;20221;-73
2022/03/21 10:45:23;;;;;;;21.87;14.50;;;13.30;1.00;;;;;;5094759;28;20202;-73
2022/03/21 10:47:53;;;;;;;23.00;14.57;;;13.00;1.00;;;;;;5094252;28;20490;-73
2022/03/21 10:50:31;;;;;;;22.90;14.27;;;13.20;1.00;;;;;;5094042;28;20198;-73
2022/03/21 10:53:17;;;;;;;20.30;13.87;;;13.10;1.00;;;;;;5093137;28;20210;-73
2022/03/21 10:55:45;;;;;;;21.57;14.67;;;13.00;1.00;;;;;;5094667;28;20209;-73
2022/03/21 10:58:13;;;;;;;21.90;15.03;;;13.10;1.00;;;;;;5093516;28;20566;-73
2022/03/21 11:00:40;;;;;;;21.13;14.67;;;13.20;1.00;;;;;;5093160;28;20232;-73
2022/03/21 11:03:13;;;;;;;23.27;14.40;;;13.20;1.00;;;;;;5093941;28;20209;-73
2022/03/21 11:05:41;;;;;;;21.07;14.53;;;13.10;1.00;;;;;;5093120;28;20236;-73
2022/03/21 11:08:10;;;;;;;22.93;14.80;;;13.20;1.00;;;;;;5092971;28;20557;-73
2022/03/21 11:10:38;;;;;;;23.40;14.50;;;13.30;1.00;;;;;;5094316;28;20201;-73
2022/03/21 11:13:06;;;;;;;24.43;14.73;;;13.10;1.00;;;;;;5092692;28;20216;-73
2022/03/21 11:15:35;;;;;;;21.10;14.67;;;13.20;1.00;;;;;;5093927;28;20213;-73
2022/03/21 11:18:04;;;;;;;23.33;15.03;;;13.40;1.00;;;;;;5093202;28;20209;-73
2022/03/21 11:20:33;;;;;;;21.80;14.97;;;13.50;1.00;;;;;;5094273;28;20217;-73
2022/03/21 11:23:01;;;;;;;23.27;15.63;;;13.50;1.00;;;;;;5093100;28;20210;-73
2022/03/21 11:25:30;;;;;;;23.93;15.70;;;13.50;1.00;;;;;;5094150;28;20213;-73
2022/03/21 11:28:47;;;;;;;23.17;15.87;;;13.90;1.00;;;;;;5091937;28;20570;-73
2022/03/21 11:31:27;;;;;;;21.43;15.00;;;13.60;1.00;;;;;;5092807;28;20652;-72
2022/03/21 11:34:03;;;;;;;23.13;14.77;;;14.10;1.00;;;;;;5093783;28;20209;-72
2022/03/21 11:36:32;;;;;;;23.40;15.93;;;13.60;1.00;;;;;;5092708;28;20197;-73
2022/03/21 11:39:01;;;;;;;22.20;16.30;;;13.80;1.00;;;;;;5093053;28;20206;-73
2022/03/21 11:41:31;;;;;;;24.07;16.70;;;14.10;1.00;;;;;;5093625;28;20217;-73
2022/03/21 11:44:15;;;;;;;24.83;17.53;;;13.80;1.00;;;;;;5093039;28;20579;-73
2022/03/21 11:46:45;;;;;;;25.67;19.80;;;14.20;1.00;;;;;;5093706;28;20296;-73
2022/03/21 11:49:44;;;;;;;25.47;18.07;;;14.20;1.00;;;;;;5092104;28;20209;-73
2022/03/21 11:52:13;;;;;;;26.67;18.87;;;14.30;1.00;;;;;;5091879;28;20209;-73
2022/03/21 11:54:41;;;;;;;24.57;16.43;;;14.20;1.00;;;;;;5093255;28;20719;-73
2022/03/21 11:57:09;;;;;;;22.80;16.20;;;14.80;1.00;;;;;;5092601;28;20603;-73
2022/03/21 11:59:56;;;;;;;21.97;14.93;;;14.60;1.00;;;;;;5092897;28;20210;-72
2022/03/21 12:02:56;;;;;;;20.97;15.40;;;14.80;1.00;;;;;;5093358;28;20207;-73
2022/03/21 12:05:51;;;;;;;21.80;14.60;;;14.30;1.00;;;;;;5092745;28;20311;-73
2022/03/21 12:08:53;;;;;;;21.97;15.37;;;14.40;1.00;;;;;;5091815;28;20296;-73
2022/03/21 12:11:58;;;;;;;24.57;15.67;;;14.60;1.00;;;;;;5078989;28;20491;-73
2022/03/21 12:14:29;;;;;;;22.00;15.10;;;14.40;1.00;;;;;;5092393;28;20201;-73
2022/03/21 12:17:41;;;;;;;23.23;15.67;;;14.80;1.00;;;;;;5093063;28;20336;-73
2022/03/21 12:20:16;;;;;;;22.60;16.17;;;14.60;1.00;;;;;;5097669;28;20260;-73
2022/03/21 12:22:50;;;;;;;24.37;15.50;;;14.50;1.00;;;;;;5091165;28;20228;-73
2022/03/21 12:25:42;;;;;;;22.57;16.20;;;14.60;1.00;;;;;;5092802;28;20216;-73
2022/03/21 12:28:20;;;;;;;22.97;15.87;;;14.80;1.00;;;;;;5091983;28;20619;-73
2022/03/21 12:30:48;;;;;;;22.40;15.80;;;14.80;1.00;;;;;;5092205;28;20647;-73
2022/03/21 12:33:28;;;;;;;21.63;15.53;;;14.90;1.00;;;;;;5100249;28;20673;-73
2022/03/21 12:36:05;;;;;;;23.33;15.17;;;14.70;1.00;;;;;;5083529;28;20284;-73
2022/03/21 12:38:39;;;;;;;23.73;16.13;;;14.80;1.00;;;;;;5092106;28;20252;-74
2022/03/21 12:41:19;;;;;;;21.77;16.10;;;14.80;1.00;;;;;;5091606;28;20231;-73
2022/03/21 12:43:54;;;;;;;23.67;15.67;;;14.80;1.00;;;;;;5091971;28;20205;-73
2022/03/21 12:46:22;;;;;;;21.93;15.63;;;15.20;1.00;;;;;;5093124;28;20210;-73
2022/03/21 12:48:54;;;;;;;22.93;15.73;;;15.20;1.00;;;;;;5091103;28;20208;-73
2022/03/21 12:51:27;;;;;;;23.90;16.53;;;15.20;1.00;;;;;;5090890;28;20217;-73
2022/03/21 12:53:56;;;;;;;22.43;15.73;;;14.90;1.00;;;;;;5090795;28;20502;-73
2022/03/21 12:56:27;;;;;;;22.87;15.67;;;15.10;1.00;;;;;;5092214;28;20210;-73
2022/03/21 12:58:59;;;;;;;24.47;15.87;;;15.10;1.00;;;;;;5091035;28;20198;-74
2022/03/21 13:01:26;;;;;;;20.97;15.67;;;15.30;1.00;;;;;;5096390;28;20348;-74
2022/03/21 13:10:32;;;;;;;21.47;15.40;;;15.60;1.00;;;;;;5094839;28;20200;-72
2022/03/21 13:12:29;;;;;;;24.00;17.50;;;15.20;1.00;;;;;;5090782;28;20196;-72
2022/03/21 13:15:04;;;;;;;23.57;15.73;;;15.30;1.00;;;;;;5091618;28;20209;-72
2022/03/21 13:18:01;;;;;;;24.13;15.87;;;15.30;1.00;;;;;;5091187;28;20219;-72
2022/03/21 13:20:31;;;;;;;24.40;16.60;;;15.90;1.00;;;;;;5046376;28;20256;-73
2022/03/21 13:22:59;;;;;;;23.20;16.37;;;15.90;1.00;;;;;;5091326;28;20227;-72
2022/03/21 13:25:29;;;;;;;24.50;17.03;;;15.10;1.00;;;;;;5092015;28;20410;-72
2022/03/21 13:28:13;;;;;;;24.30;17.07;;;15.10;1.00;;;;;;5091141;28;20349;-72